createdAt,value
2018-01-26T00:00:08.491Z,80.55
2018-01-26T00:02:36.862Z,80.45
2018-01-26T00:05:05.211Z,80.40
2018-01-26T00:07:33.562Z,80.37
2018-01-26T00:10:01.907Z,80.46
2018-01-26T00:12:30.293Z,80.58
2018-01-26T00:14:59.291Z,80.46
2018-01-26T00:17:27.980Z,80.49
2018-01-26T00:19:56.363Z,80.48
2018-01-26T00:22:24.699Z,80.57
2018-01-26T00:24:53.950Z,80.69
2018-01-26T00:27:22.243Z,80.70
2018-01-26T00:29:50.557Z,80.71
2018-01-26T00:32:18.893Z,80.70
2018-01-26T00:34:47.685Z,80.79
2018-01-26T00:37:15.975Z,80.92
2018-01-26T00:39:44.355Z,80.84
2018-01-26T00:42:12.732Z,80.89
2018-01-26T00:44:41.027Z,80.87
2018-01-26T00:47:09.330Z,80.87
2018-01-26T00:49:37.648Z,80.96
2018-01-26T00:52:06.726Z,80.98
2018-01-26T00:54:35.060Z,80.97
2018-01-26T00:57:03.442Z,81.07
2018-01-26T00:59:31.821Z,81.08
2018-01-26T01:02:00.112Z,81.15
2018-01-26T01:04:28.414Z,81.30
2018-01-26T01:06:56.876Z,81.36
2018-01-26T01:09:25.427Z,81.38
2018-01-26T01:11:54.505Z,81.53
2018-01-26T01:14:22.817Z,81.57
2018-01-26T01:16:51.867Z,81.59
2018-01-26T01:19:20.165Z,81.50
2018-01-26T01:21:48.444Z,81.65
2018-01-26T01:24:16.745Z,81.74
2018-01-26T01:26:45.911Z,81.77
2018-01-26T01:29:14.215Z,81.82
2018-01-26T01:31:42.512Z,81.85
2018-01-26T01:34:10.799Z,81.90
2018-01-26T01:36:39.891Z,81.89
2018-01-26T01:39:08.204Z,81.90
2018-01-26T01:41:36.526Z,81.89
2018-01-26T01:44:04.846Z,81.89
2018-01-26T01:46:33.936Z,81.87
2018-01-26T01:49:16.860Z,81.93
2018-01-26T01:51:45.943Z,81.90
2018-01-26T01:54:14.238Z,81.84
2018-01-26T01:56:43.359Z,81.84
2018-01-26T01:59:11.659Z,82.00
2018-01-26T02:01:40.028Z,82.11
2018-01-26T02:04:08.410Z,82.15
2018-01-26T02:06:36.705Z,82.32
2018-01-26T02:09:05.039Z,82.37
2018-01-26T02:11:33.459Z,82.33
2018-01-26T02:14:01.762Z,82.37
2018-01-26T02:16:30.843Z,82.49
2018-01-26T02:18:59.918Z,82.42
2018-01-26T02:21:28.971Z,82.47
2018-01-26T02:23:57.321Z,82.49
2018-01-26T02:26:25.605Z,82.54
2018-01-26T02:28:53.917Z,82.65
2018-01-26T02:31:22.268Z,82.67
2018-01-26T02:33:50.646Z,82.72
2018-01-26T02:36:19.756Z,82.69
2018-01-26T02:38:48.049Z,82.77
2018-01-26T02:41:16.357Z,82.82
2018-01-26T02:43:44.797Z,82.86
2018-01-26T02:46:13.115Z,82.89
2018-01-26T02:48:41.446Z,82.84
2018-01-26T02:51:09.764Z,82.81
2018-01-26T02:53:38.123Z,82.72
2018-01-26T02:56:06.416Z,82.73
2018-01-26T02:58:34.788Z,82.65
2018-01-26T03:01:03.094Z,82.66
2018-01-26T03:03:32.134Z,82.64
2018-01-26T03:06:00.442Z,82.57
2018-01-26T03:08:28.934Z,82.53
2018-01-26T03:10:57.499Z,82.61
2018-01-26T03:13:26.723Z,82.57
2018-01-26T03:15:55.317Z,82.53
2018-01-26T03:18:24.800Z,82.46
2018-01-26T03:20:53.921Z,82.40
2018-01-26T03:23:22.229Z,82.47
2018-01-26T03:25:50.528Z,82.56
2018-01-26T03:28:18.971Z,82.50
2018-01-26T03:30:47.349Z,82.49
2018-01-26T03:33:15.741Z,82.53
2018-01-26T03:35:44.217Z,82.50
2018-01-26T03:38:12.585Z,82.56
2018-01-26T03:40:41.646Z,82.61
2018-01-26T03:43:09.985Z,82.63
2018-01-26T03:45:38.310Z,82.63
2018-01-26T03:48:06.650Z,82.67
2018-01-26T03:50:35.774Z,82.59
2018-01-26T03:53:04.333Z,82.54
2018-01-26T03:55:32.645Z,82.52
2018-01-26T03:58:00.915Z,82.59
2018-01-26T04:00:29.364Z,82.65
2018-01-26T04:02:57.698Z,82.70
2018-01-26T04:05:26.016Z,82.75
2018-01-26T04:07:55.090Z,82.81
2018-01-26T04:10:23.417Z,82.86
2018-01-26T04:12:52.613Z,82.91
2018-01-26T04:15:20.894Z,82.90
2018-01-26T04:17:49.968Z,82.95
2018-01-26T04:20:18.390Z,83.00
2018-01-26T04:22:46.754Z,83.01
2018-01-26T04:25:15.805Z,83.08
2018-01-26T04:27:44.278Z,82.99
2018-01-26T04:30:12.926Z,83.00
2018-01-26T04:32:42.047Z,83.03
2018-01-26T04:35:10.434Z,83.02
2018-01-26T04:37:38.750Z,82.95
2018-01-26T04:40:07.083Z,83.02
2018-01-26T04:42:35.382Z,83.03
2018-01-26T04:45:03.672Z,83.13
2018-01-26T04:47:31.965Z,83.16
2018-01-26T04:50:00.393Z,83.16
2018-01-26T04:52:29.491Z,83.17
2018-01-26T04:54:57.828Z,83.14
2018-01-26T04:57:26.130Z,83.15
2018-01-26T04:59:54.426Z,83.15
2018-01-26T05:02:22.773Z,83.11
2018-01-26T05:04:51.053Z,83.15
2018-01-26T05:07:19.332Z,83.23
2018-01-26T05:09:48.342Z,83.17
2018-01-26T05:12:16.793Z,83.24
2018-01-26T05:14:45.089Z,83.26
2018-01-26T05:17:13.381Z,83.37
2018-01-26T05:19:41.682Z,83.33
2018-01-26T05:22:10.145Z,83.29
2018-01-26T05:24:38.514Z,83.27
2018-01-26T05:27:06.802Z,83.29
2018-01-26T05:29:35.091Z,83.30
2018-01-26T05:32:03.407Z,83.25
2018-01-26T05:34:31.694Z,83.23
2018-01-26T05:36:59.998Z,83.24
2018-01-26T05:39:28.397Z,83.22
2018-01-26T05:41:56.777Z,83.29
2018-01-26T05:44:25.064Z,83.36
2018-01-26T05:46:53.418Z,83.36
2018-01-26T05:49:22.502Z,83.47
2018-01-26T05:51:50.804Z,83.39
2018-01-26T05:54:19.880Z,83.27
2018-01-26T05:56:48.200Z,83.40
2018-01-26T05:59:16.494Z,83.33
2018-01-26T06:01:44.787Z,83.28
2018-01-26T06:04:13.204Z,83.03
2018-01-26T06:06:41.553Z,83.23
2018-01-26T06:09:09.884Z,83.44
2018-01-26T06:11:39.013Z,83.42
2018-01-26T06:14:07.308Z,83.36
2018-01-26T06:16:35.614Z,83.44
2018-01-26T06:19:03.954Z,83.56
2018-01-26T06:21:32.324Z,83.58
2018-01-26T06:24:01.375Z,83.72
2018-01-26T06:26:29.722Z,83.69
2018-01-26T06:28:58.006Z,83.60
2018-01-26T06:31:26.446Z,83.56
2018-01-26T06:33:54.751Z,83.56
2018-01-26T06:36:23.824Z,83.67
2018-01-26T06:38:52.128Z,83.80
2018-01-26T06:41:21.248Z,83.85
2018-01-26T06:43:49.553Z,83.89
2018-01-26T06:46:17.882Z,83.87
2018-01-26T06:48:46.958Z,83.96
2018-01-26T06:51:15.294Z,83.96
2018-01-26T06:53:43.608Z,83.78
2018-01-26T06:56:11.909Z,83.79
2018-01-26T06:58:40.904Z,83.76
2018-01-26T07:01:09.216Z,83.75
2018-01-26T07:03:38.272Z,83.71
2018-01-26T07:06:06.585Z,83.71
2018-01-26T07:08:35.660Z,83.87
2018-01-26T07:11:04.024Z,83.77
2018-01-26T07:13:33.116Z,84.05
2018-01-26T07:16:01.514Z,84.07
2018-01-26T07:18:29.831Z,84.02
2018-01-26T07:20:58.904Z,84.11
2018-01-26T07:23:27.190Z,84.09
2018-01-26T07:25:55.897Z,84.19
2018-01-26T07:28:24.188Z,84.15
2018-01-26T07:30:53.280Z,84.09
2018-01-26T07:33:21.583Z,84.08
2018-01-26T07:35:49.880Z,83.96
2018-01-26T07:38:18.208Z,83.91
2018-01-26T07:40:47.065Z,83.88
2018-01-26T07:43:15.364Z,83.90
2018-01-26T07:45:43.682Z,83.83
2018-01-26T07:48:12.759Z,83.75
2018-01-26T07:50:41.052Z,83.56
2018-01-26T07:53:09.348Z,83.66
2018-01-26T07:55:38.439Z,83.67
2018-01-26T07:58:06.753Z,83.70
2018-01-26T08:00:35.115Z,83.57
2018-01-26T08:03:04.197Z,83.50
2018-01-26T08:05:32.508Z,83.53
2018-01-26T08:08:00.846Z,83.47
2018-01-26T08:10:29.168Z,83.45
2018-01-26T08:12:58.238Z,83.30
2018-01-26T08:15:26.564Z,83.22
2018-01-26T08:17:55.153Z,83.12
2018-01-26T08:20:23.468Z,82.87
2018-01-26T08:22:51.774Z,82.79
2018-01-26T08:25:20.086Z,82.82
2018-01-26T08:27:48.403Z,82.86
2018-01-26T08:30:16.712Z,82.75
2018-01-26T08:32:44.994Z,82.66
2018-01-26T08:35:13.317Z,82.56
2018-01-26T08:37:41.912Z,82.53
2018-01-26T08:40:10.225Z,82.48
2018-01-26T08:42:38.534Z,82.42
2018-01-26T08:45:06.851Z,82.46
2018-01-26T08:47:35.158Z,82.44
2018-01-26T08:50:03.676Z,82.51
2018-01-26T08:52:31.964Z,82.33
2018-01-26T08:55:00.286Z,82.21
2018-01-26T08:57:28.585Z,82.04
2018-01-26T08:59:56.888Z,82.04
2018-01-26T09:02:25.202Z,82.24
2018-01-26T09:04:54.282Z,82.26
2018-01-26T09:07:22.637Z,82.00
2018-01-26T09:09:50.932Z,81.78
2018-01-26T09:12:19.277Z,81.81
2018-01-26T09:14:48.548Z,81.92
2018-01-26T09:17:18.290Z,81.71
2018-01-26T09:19:46.605Z,81.73
2018-01-26T09:22:14.910Z,81.61
2018-01-26T09:24:43.236Z,81.33
2018-01-26T09:27:11.546Z,81.52
2018-01-26T09:29:39.988Z,81.70
2018-01-26T09:32:08.293Z,81.62
2018-01-26T09:34:36.645Z,81.41
2018-01-26T09:37:05.721Z,81.29
2018-01-26T09:39:34.131Z,81.91
2018-01-26T09:42:02.425Z,81.83
2018-01-26T09:44:30.711Z,81.43
2018-01-26T09:46:59.025Z,81.24
2018-01-26T09:49:28.109Z,80.95
2018-01-26T09:51:56.461Z,80.90
2018-01-26T09:54:24.780Z,80.66
2018-01-26T09:56:53.076Z,80.72
2018-01-26T09:59:21.377Z,80.89
2018-01-26T10:01:49.723Z,80.83
2018-01-26T10:04:18.035Z,80.95
2018-01-26T10:06:46.353Z,80.91
2018-01-26T10:09:14.718Z,80.60
2018-01-26T10:11:43.020Z,80.74
2018-01-26T10:14:11.311Z,80.52
2018-01-26T10:16:39.641Z,80.47
2018-01-26T10:19:09.407Z,80.29
2018-01-26T10:21:37.738Z,79.98
2018-01-26T10:24:06.050Z,79.66
2018-01-26T10:26:35.125Z,79.57
2018-01-26T10:29:03.448Z,79.46
2018-01-26T10:31:31.914Z,79.28
2018-01-26T10:34:01.001Z,79.26
2018-01-26T10:36:29.301Z,79.33
2018-01-26T10:38:58.389Z,79.01
2018-01-26T10:41:27.435Z,78.86
2018-01-26T10:43:55.756Z,79.17
2018-01-26T10:46:24.055Z,79.34
2018-01-26T10:48:53.135Z,78.87
2018-01-26T10:51:21.479Z,79.06
2018-01-26T10:53:49.784Z,78.85
2018-01-26T10:56:18.121Z,78.37
2018-01-26T10:58:46.576Z,77.95
2018-01-26T11:01:15.713Z,78.23
2018-01-26T11:03:44.005Z,78.09
2018-01-26T11:06:12.313Z,77.84
2018-01-26T11:08:40.623Z,77.44
2018-01-26T11:11:09.689Z,77.19
2018-01-26T11:13:38.063Z,77.03
2018-01-26T11:16:06.369Z,76.92
2018-01-26T11:18:34.675Z,76.62
2018-01-26T11:21:03.784Z,76.26
2018-01-26T11:23:32.121Z,76.37
2018-01-26T11:26:00.425Z,76.29
2018-01-26T11:28:28.757Z,75.99
2018-01-26T11:30:57.061Z,75.66
2018-01-26T11:33:25.357Z,75.39
2018-01-26T11:35:54.255Z,75.12
2018-01-26T11:38:22.662Z,74.91
2018-01-26T11:40:51.742Z,74.97
2018-01-26T11:43:20.050Z,75.42
2018-01-26T11:45:48.429Z,75.05
2018-01-26T11:48:16.737Z,74.76
2018-01-26T11:50:45.067Z,74.82
2018-01-26T11:53:13.393Z,74.60
2018-01-26T11:55:41.709Z,74.46
2018-01-26T11:58:10.021Z,74.33
2018-01-26T12:00:38.345Z,74.45
2018-01-26T12:03:06.689Z,74.11
2018-01-26T12:05:35.785Z,74.21
2018-01-26T12:08:04.093Z,74.10
2018-01-26T12:10:32.601Z,73.94
2018-01-26T12:13:00.910Z,73.95
2018-01-26T12:15:29.238Z,74.07
2018-01-26T12:17:57.569Z,74.05
2018-01-26T12:20:25.907Z,73.65
2018-01-26T12:22:54.261Z,73.87
2018-01-26T12:25:22.568Z,74.03
2018-01-26T12:27:50.899Z,73.75
2018-01-26T12:30:19.222Z,73.71
2018-01-26T12:32:47.539Z,73.52
2018-01-26T12:35:15.877Z,73.47
2018-01-26T12:37:45.589Z,73.18
2018-01-26T12:40:14.740Z,73.05
2018-01-26T12:42:43.047Z,73.09
2018-01-26T12:45:11.373Z,73.11
2018-01-26T12:47:39.680Z,72.98
2018-01-26T12:50:08.236Z,72.85
2018-01-26T12:52:37.331Z,72.69
2018-01-26T12:55:06.457Z,72.57
2018-01-26T12:57:34.793Z,72.55
2018-01-26T13:00:03.423Z,72.38
2018-01-26T13:02:31.727Z,72.22
2018-01-26T13:05:00.263Z,72.19
2018-01-26T13:07:29.441Z,72.01
2018-01-26T13:09:57.751Z,71.97
2018-01-26T13:12:26.848Z,71.86
2018-01-26T13:14:55.917Z,71.93
2018-01-26T13:17:24.381Z,71.94
2018-01-26T13:19:52.677Z,72.02
2018-01-26T13:22:20.992Z,71.97
2018-01-26T13:24:50.366Z,71.85
2018-01-26T13:27:18.679Z,71.62
2018-01-26T13:29:47.745Z,71.36
2018-01-26T13:32:16.069Z,71.21
2018-01-26T13:34:45.137Z,71.16
2018-01-26T13:37:13.455Z,71.24
2018-01-26T13:39:42.558Z,71.23
2018-01-26T13:42:11.650Z,71.14
2018-01-26T13:44:39.991Z,71.10
2018-01-26T13:47:08.328Z,71.02
2018-01-26T13:49:36.639Z,70.91
2018-01-26T13:52:04.968Z,70.85
2018-01-26T13:54:34.055Z,70.80
2018-01-26T13:57:02.380Z,71.28
2018-01-26T13:59:30.688Z,71.16
2018-01-26T14:01:59.025Z,71.00
2018-01-26T14:04:28.101Z,70.91
2018-01-26T14:06:56.428Z,71.73
2018-01-26T14:09:25.308Z,71.26
2018-01-26T14:11:53.608Z,71.16
2018-01-26T14:14:21.919Z,71.22
2018-01-26T14:16:50.255Z,71.52
2018-01-26T14:19:18.559Z,72.18
2018-01-26T14:21:46.862Z,72.86
2018-01-26T14:24:15.177Z,73.05
2018-01-26T14:26:44.352Z,73.27
2018-01-26T14:29:12.668Z,73.40
2018-01-26T14:31:41.734Z,73.74
2018-01-26T14:34:10.047Z,73.76
2018-01-26T14:36:38.371Z,74.50
2018-01-26T14:39:06.673Z,74.65
2018-01-26T14:41:35.045Z,75.15
2018-01-26T14:44:03.344Z,74.63
2018-01-26T14:46:31.641Z,74.10
2018-01-26T14:49:00.023Z,73.95
2018-01-26T14:51:29.122Z,74.06
2018-01-26T14:53:57.437Z,73.74
2018-01-26T14:56:25.775Z,73.39
2018-01-26T14:58:54.078Z,73.47
2018-01-26T15:01:23.227Z,73.55
2018-01-26T15:03:51.548Z,73.62
2018-01-26T15:06:19.873Z,73.65
2018-01-26T15:08:48.170Z,73.85
2018-01-26T15:11:16.500Z,74.00
2018-01-26T15:13:45.571Z,73.98
2018-01-26T15:16:13.875Z,73.83
2018-01-26T15:18:42.184Z,73.89
2018-01-26T15:21:11.283Z,74.00
2018-01-26T15:23:39.580Z,73.80
2018-01-26T15:26:08.049Z,73.91
2018-01-26T15:28:36.346Z,73.84
2018-01-26T15:31:04.674Z,73.86
2018-01-26T15:33:33.018Z,73.83
2018-01-26T15:36:01.343Z,74.05
2018-01-26T15:38:29.789Z,73.88
2018-01-26T15:40:58.258Z,74.03
2018-01-26T15:43:26.588Z,74.29
2018-01-26T15:45:54.905Z,74.33
2018-01-26T15:48:23.217Z,74.43
2018-01-26T15:50:51.530Z,75.45
2018-01-26T15:53:19.844Z,75.09
2018-01-26T15:55:48.928Z,74.97
2018-01-26T15:58:18.035Z,74.86
2018-01-26T16:00:47.114Z,74.89
2018-01-26T16:03:15.424Z,74.75
2018-01-26T16:05:44.528Z,75.15
2018-01-26T16:08:13.624Z,75.59
2018-01-26T16:10:42.704Z,75.98
2018-01-26T16:13:11.024Z,76.48
2018-01-26T16:15:39.322Z,76.82
2018-01-26T16:18:07.634Z,77.06
2018-01-26T16:20:35.948Z,76.94
2018-01-26T16:23:05.165Z,76.80
2018-01-26T16:25:34.224Z,76.91
2018-01-26T16:28:02.527Z,77.24
2018-01-26T16:30:31.691Z,78.01
2018-01-26T16:33:00.049Z,78.32
2018-01-26T16:35:28.443Z,78.51
2018-01-26T16:37:56.740Z,79.14
2018-01-26T16:40:25.968Z,80.02
2018-01-26T16:42:54.300Z,80.61
2018-01-26T16:45:22.604Z,81.01
2018-01-26T16:47:50.920Z,81.35
2018-01-26T16:50:21.058Z,81.69
2018-01-26T16:52:49.384Z,81.95
2018-01-26T16:55:17.688Z,82.20
2018-01-26T16:57:46.004Z,82.40
2018-01-26T17:00:14.332Z,82.69
2018-01-26T17:02:42.668Z,82.85
2018-01-26T17:05:10.988Z,83.09
2018-01-26T17:07:39.296Z,83.08
2018-01-26T17:10:07.612Z,83.24
2018-01-26T17:12:35.927Z,83.36
2018-01-26T17:15:04.379Z,83.41
2018-01-26T17:17:32.688Z,83.25
2018-01-26T17:20:00.978Z,83.30
2018-01-26T17:22:29.305Z,83.47
2018-01-26T17:24:58.416Z,83.31
2018-01-26T17:27:26.700Z,83.14
2018-01-26T17:29:55.926Z,83.23
2018-01-26T17:32:24.245Z,83.48
2018-01-26T17:34:52.562Z,83.78
2018-01-26T17:37:21.650Z,83.86
2018-01-26T17:39:50.733Z,83.63
2018-01-26T17:42:19.053Z,83.78
2018-01-26T17:44:47.355Z,84.10
2018-01-26T17:47:15.668Z,84.65
2018-01-26T17:49:44.064Z,85.05
2018-01-26T17:52:13.104Z,85.53
2018-01-26T17:54:41.404Z,85.44
2018-01-26T17:57:09.766Z,85.16
2018-01-26T17:59:38.066Z,85.26
2018-01-26T18:02:06.402Z,85.12
2018-01-26T18:04:35.465Z,84.83
2018-01-26T18:07:03.804Z,84.42
2018-01-26T18:09:32.131Z,84.44
2018-01-26T18:12:00.443Z,84.25
2018-01-26T18:14:28.734Z,83.95
2018-01-26T18:16:57.820Z,83.61
2018-01-26T18:19:26.898Z,83.52
2018-01-26T18:21:55.224Z,83.42
2018-01-26T18:24:24.294Z,83.25
2018-01-26T18:26:52.614Z,83.41
2018-01-26T18:29:20.933Z,83.89
2018-01-26T18:31:49.238Z,83.84
2018-01-26T18:34:17.561Z,83.77
2018-01-26T18:36:45.877Z,83.65
2018-01-26T18:39:14.201Z,83.26
2018-01-26T18:41:43.308Z,83.02
2018-01-26T18:44:12.467Z,82.79
2018-01-26T18:46:40.772Z,82.53
2018-01-26T18:49:09.082Z,82.30
2018-01-26T18:51:37.429Z,82.20
2018-01-26T18:54:05.732Z,82.08
2018-01-26T18:56:34.815Z,82.01
2018-01-26T18:59:03.900Z,82.05
2018-01-26T19:01:32.230Z,81.99
2018-01-26T19:04:00.564Z,81.89
2018-01-26T19:06:28.902Z,81.78
2018-01-26T19:08:57.234Z,81.66
2018-01-26T19:11:25.547Z,81.55
2018-01-26T19:13:54.856Z,81.34
2018-01-26T19:16:23.271Z,81.28
2018-01-26T19:18:51.592Z,81.33
2018-01-26T19:21:20.622Z,81.31
2018-01-26T19:23:48.932Z,81.35
2018-01-26T19:26:17.244Z,81.07
2018-01-26T19:28:45.538Z,80.86
2018-01-26T19:31:13.899Z,80.82
2018-01-26T19:33:42.217Z,80.41
2018-01-26T19:36:11.270Z,79.85
2018-01-26T19:38:39.766Z,79.69
2018-01-26T19:41:08.921Z,79.38
2018-01-26T19:43:37.232Z,79.34
2018-01-26T19:46:05.556Z,79.27
2018-01-26T19:48:34.896Z,79.16
2018-01-26T19:51:04.864Z,78.85
2018-01-26T19:53:33.170Z,78.47
2018-01-26T19:56:01.517Z,78.09
2018-01-26T19:58:29.816Z,77.71
2018-01-26T20:00:58.130Z,77.28
2018-01-26T20:03:32.071Z,76.89
2018-01-26T20:06:06.204Z,76.79
2018-01-26T20:08:40.962Z,76.74
2018-01-26T20:11:10.312Z,76.85
2018-01-26T20:13:38.970Z,76.83
2018-01-26T20:16:08.042Z,76.70
2018-01-26T20:18:36.345Z,76.84
2018-01-26T20:21:05.446Z,77.13
2018-01-26T20:23:34.502Z,77.17
2018-01-26T20:26:02.797Z,77.06
2018-01-26T20:28:31.105Z,76.90
2018-01-26T20:31:00.821Z,76.64
2018-01-26T20:33:29.934Z,76.46
2018-01-26T20:35:58.689Z,76.38
2018-01-26T20:38:27.776Z,76.58
2018-01-26T20:40:56.204Z,76.76
2018-01-26T20:43:24.559Z,77.02
2018-01-26T20:45:53.727Z,77.08
2018-01-26T20:48:22.097Z,77.18
2018-01-26T20:50:50.481Z,77.14
2018-01-26T20:53:18.819Z,77.16
2018-01-26T20:55:47.360Z,77.23
2018-01-26T20:58:16.733Z,77.27
2018-01-26T21:00:45.127Z,77.20
2018-01-26T21:03:13.509Z,77.09
2018-01-26T21:05:42.067Z,77.02
2018-01-26T21:08:10.421Z,76.88
2018-01-26T21:10:39.005Z,76.73
2018-01-26T21:13:07.335Z,76.85
2018-01-26T21:15:35.648Z,77.01
2018-01-26T21:18:03.953Z,77.01
2018-01-26T21:20:32.256Z,76.73
2018-01-26T21:23:01.489Z,76.67
2018-01-26T21:25:29.926Z,76.70
2018-01-26T21:27:58.243Z,76.73
2018-01-26T21:30:27.328Z,76.75
2018-01-26T21:32:57.466Z,76.69
2018-01-26T21:35:25.792Z,76.56
2018-01-26T21:37:54.117Z,76.59
2018-01-26T21:40:22.426Z,76.47
2018-01-26T21:42:51.566Z,76.16
2018-01-26T21:45:20.645Z,75.74
2018-01-26T21:47:48.950Z,75.63
2018-01-26T21:50:17.419Z,75.50
2018-01-26T21:52:45.726Z,75.40
2018-01-26T21:55:14.054Z,75.54
2018-01-26T21:57:42.376Z,75.50
2018-01-26T22:00:11.457Z,75.27
2018-01-26T22:02:39.881Z,75.06
2018-01-26T22:05:16.682Z,75.08
2018-01-26T22:07:45.774Z,75.21
2018-01-26T22:10:14.850Z,74.94
2018-01-26T22:12:43.257Z,74.80
2018-01-26T22:15:12.317Z,74.73
2018-01-26T22:17:40.599Z,74.79
2018-01-26T22:20:08.909Z,74.85
2018-01-26T22:22:37.995Z,74.51
2018-01-26T22:25:06.297Z,74.40
2018-01-26T22:27:35.352Z,74.49
2018-01-26T22:30:03.666Z,74.25
2018-01-26T22:32:31.995Z,73.83
2018-01-26T22:35:00.445Z,73.73
2018-01-26T22:37:29.575Z,73.67
2018-01-26T22:39:57.885Z,73.68
2018-01-26T22:42:26.221Z,73.87
2018-01-26T22:44:54.529Z,74.21
2018-01-26T22:47:22.882Z,74.24
2018-01-26T22:49:51.195Z,74.41
2018-01-26T22:52:19.582Z,74.52
2018-01-26T22:54:47.876Z,74.57
2018-01-26T22:57:16.207Z,74.76
2018-01-26T22:59:44.555Z,74.80
2018-01-26T23:02:13.090Z,75.09
2018-01-26T23:04:41.474Z,75.10
2018-01-26T23:07:10.351Z,75.34
2018-01-26T23:09:39.467Z,75.52
2018-01-26T23:12:07.783Z,75.30
2018-01-26T23:14:36.170Z,75.15
2018-01-26T23:17:04.473Z,75.17
2018-01-26T23:19:32.789Z,75.10
2018-01-26T23:22:01.090Z,75.09
2018-01-26T23:24:29.421Z,74.89
2018-01-26T23:26:57.732Z,74.96
2018-01-26T23:29:26.033Z,74.91
2018-01-26T23:31:54.339Z,75.10
2018-01-26T23:34:22.785Z,75.15
2018-01-26T23:36:51.091Z,75.39
2018-01-26T23:39:19.403Z,75.39
2018-01-26T23:41:47.799Z,75.48
2018-01-26T23:44:16.969Z,75.33
2018-01-26T23:46:45.303Z,75.28
2018-01-26T23:49:13.750Z,75.14
2018-01-26T23:51:42.102Z,75.13
2018-01-26T23:54:10.409Z,75.19
2018-01-26T23:56:39.199Z,75.28
2018-01-26T23:59:07.525Z,75.40
